Time;durP1;ratioP1;P1;durP2;ratioP2;P2;SDS_P1;SDS_P2;PMS_P1;PMS_P2;Temp;Humidity;BMP_temperature;BMP_pressure;BME280_temperature;BME280_humidity;BME280_pressure;Samples;Min_cycle;Max_cycle;Signal;HPM_P1;HPM_P2
2022/04/08 00:01:28;;;;;;;11.73;1.85;;;6.60;99.90;;;;;;5030755;28;20040;-83
2022/04/08 00:03:55;;;;;;;10.63;2.00;;;6.50;99.90;;;;;;5014719;28;20120;-82
2022/04/08 00:06:21;;;;;;;9.85;1.42;;;6.50;99.90;;;;;;5030916;28;20132;-82
2022/04/08 00:08:47;;;;;;;6.25;1.00;;;6.50;99.90;;;;;;5014815;28;20103;-83
2022/04/08 00:11:14;;;;;;;7.93;1.27;;;6.50;99.90;;;;;;5030546;28;20048;-82
2022/04/08 00:13:40;;;;;;;8.90;1.85;;;6.50;99.90;;;;;;5014522;28;20037;-82
2022/04/08 00:16:07;;;;;;;14.45;1.80;;;6.50;99.90;;;;;;5030995;28;20414;-83
2022/04/08 00:18:33;;;;;;;9.88;1.42;;;6.40;99.90;;;;;;5029884;28;20052;-83
2022/04/08 00:20:59;;;;;;;8.50;1.52;;;6.40;99.90;;;;;;5030741;28;20469;-82
2022/04/08 00:23:25;;;;;;;9.30;1.60;;;6.40;99.90;;;;;;5030645;28;20033;-82
2022/04/08 00:25:51;;;;;;;7.90;1.45;;;6.40;99.90;;;;;;5030742;28;20119;-83
2022/04/08 00:28:17;;;;;;;8.70;1.45;;;6.40;99.90;;;;;;5030578;28;20041;-82
2022/04/08 00:30:42;;;;;;;6.95;1.52;;;6.40;99.90;;;;;;5030449;28;20118;-82
2022/04/08 00:33:08;;;;;;;11.00;2.10;;;6.30;99.90;;;;;;5030860;28;20195;-82
2022/04/08 00:35:34;;;;;;;6.75;1.23;;;6.30;99.90;;;;;;5014048;28;20560;-82
2022/04/08 00:37:59;;;;;;;5.88;1.20;;;6.30;99.90;;;;;;5030556;28;20045;-82
2022/04/08 00:40:25;;;;;;;10.30;1.73;;;6.30;99.90;;;;;;5030140;28;20124;-82
2022/04/08 00:42:50;;;;;;;8.30;1.10;;;6.30;99.90;;;;;;5030494;28;20064;-83
2022/04/08 00:45:16;;;;;;;8.32;1.02;;;6.20;99.90;;;;;;5030433;28;20064;-82
2022/04/08 00:47:44;;;;;;;7.60;1.08;;;6.20;99.90;;;;;;5030503;28;20041;-82
2022/04/08 00:50:10;;;;;;;7.40;1.10;;;6.20;99.90;;;;;;5030091;28;20052;-82
2022/04/08 00:52:39;;;;;;;5.30;0.90;;;6.20;99.90;;;;;;5030362;28;20376;-83
2022/04/08 00:55:06;;;;;;;7.18;0.88;;;6.20;99.90;;;;;;5014029;28;20124;-82
2022/04/08 00:57:33;;;;;;;9.40;1.85;;;6.20;99.90;;;;;;5030254;28;20037;-82
2022/04/08 01:00:03;;;;;;;9.32;1.00;;;6.20;99.90;;;;;;5030381;28;20132;-82
2022/04/08 01:02:29;;;;;;;2.85;0.68;;;6.10;99.90;;;;;;5030435;28;20041;-82
2022/04/08 01:04:55;;;;;;;2.70;0.65;;;6.10;99.90;;;;;;5030231;28;20091;-82
2022/04/08 01:07:22;;;;;;;4.82;0.88;;;6.00;99.90;;;;;;5030436;28;20064;-82
2022/04/08 01:09:47;;;;;;;2.88;0.60;;;5.90;99.90;;;;;;5030009;28;20041;-82
2022/04/08 01:12:13;;;;;;;2.60;0.60;;;5.80;99.90;;;;;;5029999;28;20132;-82
2022/04/08 01:14:41;;;;;;;5.07;0.57;;;5.80;99.90;;;;;;5030115;28;20068;-82
2022/04/08 01:17:07;;;;;;;4.93;0.88;;;5.80;99.90;;;;;;5013738;28;20038;-82
2022/04/08 01:19:32;;;;;;;7.97;1.10;;;5.70;99.90;;;;;;5013292;28;20584;-82
2022/04/08 01:21:58;;;;;;;3.42;0.90;;;5.70;99.90;;;;;;5030096;28;20046;-82
2022/04/08 01:24:26;;;;;;;4.43;0.75;;;5.70;99.90;;;;;;5030145;28;20446;-82
2022/04/08 01:26:52;;;;;;;4.07;0.70;;;5.70;99.90;;;;;;5030162;28;20049;-82
2022/04/08 01:29:18;;;;;;;4.75;0.60;;;5.70;99.90;;;;;;5031058;28;20045;-82
2022/04/08 01:31:45;;;;;;;6.57;1.00;;;5.70;99.90;;;;;;5033696;28;20103;-82
2022/04/08 01:34:11;;;;;;;8.05;1.08;;;5.70;99.90;;;;;;5033837;28;20045;-82
2022/04/08 01:36:37;;;;;;;3.13;0.75;;;5.70;99.90;;;;;;5033661;28;20426;-82
2022/04/08 01:39:04;;;;;;;5.88;0.98;;;5.70;99.90;;;;;;5033995;28;20079;-82
2022/04/08 01:41:31;;;;;;;4.82;0.82;;;5.60;99.90;;;;;;5017005;28;20041;-82
2022/04/08 01:43:57;;;;;;;9.35;1.27;;;5.60;99.90;;;;;;5033765;28;20083;-83
2022/04/08 01:46:23;;;;;;;8.38;1.20;;;5.50;99.90;;;;;;5033825;28;20060;-82
2022/04/08 01:48:51;;;;;;;6.68;1.25;;;5.50;99.90;;;;;;5017418;28;20599;-83
2022/04/08 01:51:16;;;;;;;6.65;1.30;;;5.50;99.90;;;;;;5033593;28;20469;-82
2022/04/08 01:53:42;;;;;;;4.95;1.27;;;5.50;99.90;;;;;;5033420;28;20049;-83
2022/04/08 01:56:07;;;;;;;13.93;1.60;;;5.50;99.90;;;;;;5017181;28;20045;-82
2022/04/08 01:58:33;;;;;;;8.13;1.00;;;5.50;99.90;;;;;;5033358;28;20087;-82
2022/04/08 02:00:59;;;;;;;3.95;1.17;;;5.50;99.90;;;;;;5033117;28;20037;-82
2022/04/08 02:03:25;;;;;;;6.13;1.05;;;5.50;99.90;;;;;;5017171;28;20395;-82
2022/04/08 02:05:51;;;;;;;8.70;1.33;;;5.50;99.90;;;;;;5017001;28;20524;-82
2022/04/08 02:08:17;;;;;;;10.45;2.38;;;5.50;99.90;;;;;;5033380;28;20124;-83
2022/04/08 02:10:42;;;;;;;6.00;1.15;;;5.40;99.90;;;;;;5032918;28;20454;-82
2022/04/08 02:13:08;;;;;;;7.80;1.00;;;5.40;99.90;;;;;;5016736;28;20128;-82
2022/04/08 02:15:35;;;;;;;5.18;1.00;;;5.30;99.90;;;;;;5033261;28;20033;-82
2022/04/08 02:18:01;;;;;;;7.35;1.73;;;5.20;99.90;;;;;;5033374;28;20566;-82
2022/04/08 02:20:29;;;;;;;8.55;1.33;;;5.10;99.90;;;;;;5032680;28;20553;-82
2022/04/08 02:22:55;;;;;;;6.15;1.50;;;5.00;99.90;;;;;;5032921;28;20088;-82
2022/04/08 02:25:20;;;;;;;10.38;1.17;;;4.90;99.90;;;;;;5016855;28;20053;-82
2022/04/08 02:27:46;;;;;;;8.45;1.00;;;4.80;99.90;;;;;;5033197;28;20116;-82
2022/04/08 02:30:12;;;;;;;7.65;1.00;;;4.70;99.90;;;;;;5015970;28;20033;-82
2022/04/08 02:32:38;;;;;;;8.38;1.17;;;4.60;99.90;;;;;;5032975;28;20399;-82
2022/04/08 02:35:04;;;;;;;8.48;1.25;;;4.60;99.90;;;;;;5032896;28;20030;-82
2022/04/08 02:37:30;;;;;;;5.35;0.80;;;4.50;99.90;;;;;;5032764;28;20064;-82
2022/04/08 02:39:55;;;;;;;6.95;1.33;;;4.40;99.90;;;;;;5032639;28;20110;-82
2022/04/08 02:42:21;;;;;;;6.03;0.82;;;4.30;99.90;;;;;;5015194;28;20041;-82
2022/04/08 02:44:46;;;;;;;8.15;1.60;;;4.30;99.90;;;;;;5032888;28;20042;-82
2022/04/08 02:47:12;;;;;;;8.60;1.48;;;4.20;99.90;;;;;;5032633;28;20037;-82
2022/04/08 02:49:38;;;;;;;6.38;1.42;;;4.10;99.90;;;;;;5032252;28;20462;-82
2022/04/08 02:52:03;;;;;;;5.18;1.00;;;4.10;99.90;;;;;;5032417;28;20048;-82
2022/04/08 02:54:29;;;;;;;7.82;1.20;;;4.10;99.90;;;;;;5032627;28;20135;-82
2022/04/08 02:56:55;;;;;;;9.70;1.50;;;4.10;99.90;;;;;;5032429;28;20084;-82
2022/04/08 02:59:20;;;;;;;9.52;1.90;;;4.20;99.90;;;;;;5032276;28;20124;-82
2022/04/08 03:01:46;;;;;;;8.40;1.38;;;4.20;99.90;;;;;;5032078;28;20121;-82
2022/04/08 03:04:11;;;;;;;5.78;0.95;;;4.30;99.90;;;;;;5016196;28;20447;-83
2022/04/08 03:06:37;;;;;;;7.97;1.40;;;4.40;99.90;;;;;;5032245;28;20636;-82
2022/04/08 03:09:04;;;;;;;4.47;1.00;;;4.40;99.90;;;;;;5015908;28;20067;-82
2022/04/08 03:11:30;;;;;;;5.95;1.30;;;4.50;99.90;;;;;;5032048;28;20049;-82
2022/04/08 03:13:59;;;;;;;7.78;1.20;;;4.40;99.90;;;;;;5032292;28;20406;-82
2022/04/08 03:16:25;;;;;;;6.90;0.93;;;4.40;99.90;;;;;;5032210;28;20041;-81
2022/04/08 03:18:51;;;;;;;8.77;1.35;;;4.40;99.90;;;;;;5035578;28;20037;-82
2022/04/08 03:21:16;;;;;;;6.97;1.65;;;4.40;99.90;;;;;;5023806;28;20043;-82
2022/04/08 03:23:43;;;;;;;6.65;1.30;;;4.30;99.90;;;;;;5056467;28;20048;-81
2022/04/08 03:26:09;;;;;;;7.00;1.38;;;4.30;99.90;;;;;;5057722;28;20037;-82
2022/04/08 03:28:34;;;;;;;7.97;1.13;;;4.30;99.90;;;;;;5044317;28;20049;-83
2022/04/08 03:31:01;;;;;;;9.68;1.23;;;4.20;99.90;;;;;;5048546;28;20049;-82
2022/04/08 03:33:27;;;;;;;8.13;1.67;;;4.20;99.90;;;;;;5015034;28;20048;-82
2022/04/08 03:35:52;;;;;;;10.00;1.55;;;4.20;99.90;;;;;;5032077;28;20049;-82
2022/04/08 03:38:18;;;;;;;6.78;1.35;;;4.20;99.90;;;;;;5015378;28;20037;-82
2022/04/08 03:40:43;;;;;;;6.75;1.45;;;4.10;99.90;;;;;;5031315;28;20041;-82
2022/04/08 03:43:09;;;;;;;9.45;1.17;;;4.20;99.90;;;;;;5031439;28;20129;-83
2022/04/08 03:45:35;;;;;;;6.20;1.20;;;4.20;99.90;;;;;;5031616;28;20048;-83
2022/04/08 03:48:01;;;;;;;4.50;1.10;;;4.20;99.90;;;;;;5031416;28;20046;-83
2022/04/08 03:50:27;;;;;;;8.52;1.58;;;4.20;99.90;;;;;;5031128;28;20458;-83
2022/04/08 03:52:52;;;;;;;5.25;1.30;;;4.20;99.90;;;;;;5030890;28;20037;-83
2022/04/08 03:55:18;;;;;;;8.30;1.17;;;4.20;99.90;;;;;;5031468;28;20065;-83
2022/04/08 03:57:44;;;;;;;8.02;1.25;;;4.20;99.90;;;;;;5030982;28;20088;-83
2022/04/08 04:00:10;;;;;;;6.47;1.05;;;4.20;99.90;;;;;;5030965;28;20037;-82
2022/04/08 04:02:36;;;;;;;8.00;1.17;;;4.20;99.90;;;;;;5031061;28;20038;-82
2022/04/08 04:05:02;;;;;;;6.55;1.42;;;4.20;99.90;;;;;;5031168;28;20045;-83
2022/04/08 04:07:28;;;;;;;7.22;1.50;;;4.20;99.90;;;;;;5029484;28;20045;-83
2022/04/08 04:09:54;;;;;;;13.57;1.30;;;4.20;99.90;;;;;;5030723;28;20068;-83
2022/04/08 04:12:20;;;;;;;6.57;0.98;;;4.20;99.90;;;;;;5014321;28;20667;-83
2022/04/08 04:14:45;;;;;;;7.32;1.25;;;4.10;99.90;;;;;;5030851;28;20052;-83
2022/04/08 04:17:11;;;;;;;8.95;1.40;;;4.10;99.90;;;;;;5030592;28;20119;-82
2022/04/08 04:19:37;;;;;;;7.95;1.30;;;4.10;99.90;;;;;;5030216;28;20037;-84
2022/04/08 04:22:04;;;;;;;7.65;1.30;;;4.10;99.90;;;;;;5030644;28;20037;-83
2022/04/08 04:24:29;;;;;;;8.93;2.08;;;4.10;99.90;;;;;;5030667;28;20042;-83
2022/04/08 04:26:55;;;;;;;10.73;1.67;;;4.10;99.90;;;;;;5013999;28;20407;-83
2022/04/08 04:29:21;;;;;;;8.20;1.15;;;4.10;99.90;;;;;;5030529;28;20593;-83
2022/04/08 04:31:47;;;;;;;7.03;1.38;;;4.10;99.90;;;;;;5014137;28;20144;-82
2022/04/08 04:34:13;;;;;;;10.25;1.67;;;4.10;99.90;;;;;;5030695;28;20128;-82
2022/04/08 04:36:38;;;;;;;14.23;2.25;;;4.20;99.90;;;;;;5030319;28;20056;-83
2022/04/08 04:39:04;;;;;;;11.43;1.77;;;4.20;99.90;;;;;;5014062;28;20037;-82
2022/04/08 04:41:30;;;;;;;9.75;1.67;;;4.20;99.90;;;;;;5029906;28;20037;-83
2022/04/08 04:43:55;;;;;;;9.35;1.55;;;4.20;99.90;;;;;;5029775;28;20040;-83
2022/04/08 04:46:21;;;;;;;12.10;1.70;;;4.20;99.90;;;;;;5030387;28;20522;-83
2022/04/08 04:48:47;;;;;;;10.02;1.88;;;4.30;99.90;;;;;;5030235;28;20041;-83
2022/04/08 04:51:16;;;;;;;10.00;1.67;;;4.30;99.90;;;;;;5029981;28;20041;-83
2022/04/08 04:53:42;;;;;;;15.55;2.38;;;4.30;99.90;;;;;;5030182;28;20041;-83
2022/04/08 04:56:07;;;;;;;11.20;2.10;;;4.40;99.90;;;;;;5013369;28;20038;-83
2022/04/08 04:58:33;;;;;;;12.10;2.47;;;4.40;99.90;;;;;;5030457;28;20037;-83
2022/04/08 05:00:59;;;;;;;13.27;2.08;;;4.40;99.90;;;;;;5029965;28;20095;-83
2022/04/08 05:03:24;;;;;;;10.90;1.85;;;4.50;99.90;;;;;;5014534;28;20395;-83
2022/04/08 05:05:51;;;;;;;14.20;2.13;;;4.50;99.90;;;;;;5036908;28;20526;-82
2022/04/08 05:08:16;;;;;;;10.40;3.05;;;4.50;99.90;;;;;;5036611;28;20041;-83
2022/04/08 05:10:42;;;;;;;6.80;1.50;;;4.40;99.90;;;;;;5019709;28;20053;-83
2022/04/08 05:13:07;;;;;;;13.30;2.08;;;4.40;99.90;;;;;;5019420;28;20041;-83
2022/04/08 05:15:38;;;;;;;10.65;2.15;;;4.40;99.90;;;;;;5035590;28;20037;-83
2022/04/08 05:18:04;;;;;;;13.52;2.25;;;4.40;99.90;;;;;;5035921;28;20052;-83
2022/04/08 05:20:30;;;;;;;12.48;2.22;;;4.40;99.90;;;;;;5036642;28;20471;-83
2022/04/08 05:22:55;;;;;;;12.82;1.92;;;4.40;99.90;;;;;;5036207;28;20072;-83
2022/04/08 05:25:21;;;;;;;11.68;2.15;;;4.40;99.90;;;;;;5036635;28;20403;-83
2022/04/08 05:27:47;;;;;;;11.18;2.05;;;4.40;99.90;;;;;;5020184;28;20483;-83
2022/04/08 05:30:18;;;;;;;8.52;1.67;;;4.40;99.90;;;;;;5036435;28;20403;-83
2022/04/08 05:32:46;;;;;;;9.20;1.67;;;4.40;99.90;;;;;;5036826;28;20081;-83
2022/04/08 05:35:17;;;;;;;9.05;1.60;;;4.50;99.90;;;;;;5036650;28;20127;-83
2022/04/08 05:37:44;;;;;;;9.98;1.77;;;4.50;99.90;;;;;;5035725;28;20037;-83
2022/04/08 05:40:15;;;;;;;8.40;1.63;;;4.50;99.90;;;;;;5034661;28;20048;-82
2022/04/08 05:42:45;;;;;;;12.05;2.25;;;4.60;99.90;;;;;;5036674;28;20150;-83
2022/04/08 05:45:11;;;;;;;7.95;1.40;;;4.60;99.90;;;;;;5036267;28;20037;-83
2022/04/08 05:47:38;;;;;;;9.80;1.52;;;4.60;99.90;;;;;;5020250;28;20402;-82
2022/04/08 05:50:04;;;;;;;10.05;1.65;;;4.70;99.90;;;;;;5036300;28;20042;-83
2022/04/08 05:52:30;;;;;;;6.05;1.30;;;4.70;99.90;;;;;;5036234;28;20052;-82
2022/04/08 05:54:55;;;;;;;6.35;1.25;;;4.70;99.90;;;;;;5020062;28;20511;-83
2022/04/08 05:57:21;;;;;;;3.58;1.23;;;4.60;99.90;;;;;;5036367;28;20038;-83
2022/04/08 05:59:48;;;;;;;5.65;1.15;;;4.60;99.90;;;;;;5036456;28;20176;-82
2022/04/08 06:02:14;;;;;;;6.03;1.90;;;4.50;99.90;;;;;;5036385;28;20047;-82
2022/04/08 06:04:40;;;;;;;6.95;1.25;;;4.40;99.90;;;;;;5034117;28;20127;-83
2022/04/08 06:07:05;;;;;;;7.60;1.83;;;4.40;99.90;;;;;;5036302;28;20084;-83
2022/04/08 06:09:32;;;;;;;2.30;0.90;;;4.40;99.90;;;;;;5035911;28;20531;-83
2022/04/08 06:11:58;;;;;;;4.03;1.05;;;4.30;99.90;;;;;;5036243;28;20048;-83
2022/04/08 06:14:23;;;;;;;3.78;1.50;;;4.30;99.90;;;;;;5036523;28;20034;-83
2022/04/08 06:16:49;;;;;;;5.97;1.35;;;4.40;99.90;;;;;;5033368;28;20052;-83
2022/04/08 06:19:14;;;;;;;5.88;1.30;;;4.40;99.90;;;;;;5032986;28;20037;-83
2022/04/08 06:21:43;;;;;;;7.47;1.95;;;4.40;99.90;;;;;;5015731;28;20841;-83
2022/04/08 06:24:09;;;;;;;3.35;1.02;;;4.40;99.90;;;;;;5033328;28;20096;-84
2022/04/08 06:26:36;;;;;;;3.42;1.13;;;4.30;99.90;;;;;;5032556;28;20076;-83
2022/04/08 06:29:02;;;;;;;5.47;1.10;;;4.20;99.90;;;;;;5032881;28;20052;-83
2022/04/08 06:31:29;;;;;;;5.45;1.30;;;4.20;99.90;;;;;;5016190;28;20107;-83
2022/04/08 06:33:57;;;;;;;6.15;1.23;;;4.10;99.90;;;;;;5032740;28;20454;-83
2022/04/08 06:36:23;;;;;;;2.75;0.95;;;4.00;99.90;;;;;;5016194;28;20411;-83
2022/04/08 06:38:49;;;;;;;4.20;0.90;;;4.00;99.90;;;;;;5016004;28;20034;-83
2022/04/08 06:41:14;;;;;;;3.22;1.25;;;3.90;99.90;;;;;;5032296;28;20038;-83
2022/04/08 06:43:40;;;;;;;3.35;1.15;;;3.80;99.90;;;;;;5031803;28;20069;-83
2022/04/08 06:46:06;;;;;;;6.32;0.90;;;3.80;99.90;;;;;;5032528;28;20128;-83
2022/04/08 06:48:33;;;;;;;2.28;0.98;;;3.80;99.90;;;;;;5032749;28;20045;-83
2022/04/08 06:51:00;;;;;;;2.55;1.08;;;3.70;99.90;;;;;;5031996;28;20041;-83
2022/04/08 06:53:26;;;;;;;2.38;0.85;;;3.70;99.90;;;;;;5032583;28;20045;-83
2022/04/08 06:55:51;;;;;;;2.45;0.90;;;3.70;99.90;;;;;;5015823;28;20557;-83
2022/04/08 06:58:19;;;;;;;2.20;0.90;;;3.80;99.90;;;;;;5015849;28;20450;-83
2022/04/08 07:00:45;;;;;;;2.17;0.65;;;3.90;99.90;;;;;;5032057;28;20088;-84
2022/04/08 07:03:10;;;;;;;2.90;1.08;;;4.00;99.90;;;;;;5031737;28;20037;-83
2022/04/08 07:05:36;;;;;;;4.22;1.08;;;4.10;99.90;;;;;;5032447;28;20118;-83
2022/04/08 07:08:02;;;;;;;5.80;1.02;;;4.20;99.90;;;;;;5032293;28;20044;-83
2022/04/08 07:10:27;;;;;;;4.38;1.17;;;4.20;99.90;;;;;;5015383;28;20033;-83
2022/04/08 07:12:53;;;;;;;6.70;1.40;;;4.20;99.90;;;;;;5015578;28;20155;-83
2022/04/08 07:15:19;;;;;;;3.65;1.30;;;4.30;99.90;;;;;;5031903;28;20410;-83
2022/04/08 07:17:44;;;;;;;4.53;1.10;;;4.20;99.90;;;;;;5031738;28;20037;-83
2022/04/08 07:20:14;;;;;;;2.03;0.90;;;4.20;99.90;;;;;;5031596;28;20071;-83
2022/04/08 07:22:41;;;;;;;3.55;0.90;;;4.20;99.90;;;;;;5031865;28;20121;-83
2022/04/08 07:25:07;;;;;;;1.45;0.82;;;4.30;99.90;;;;;;5032005;28;20037;-83
2022/04/08 07:27:48;;;;;;;3.50;0.85;;;4.50;99.90;;;;;;5014828;28;20529;-84
2022/04/08 07:30:15;;;;;;;4.93;1.17;;;4.60;99.90;;;;;;5031375;28;20503;-83
2022/04/08 07:32:41;;;;;;;2.40;0.98;;;4.70;99.90;;;;;;5031542;28;20045;-84
2022/04/08 07:35:10;;;;;;;2.53;1.02;;;4.80;99.90;;;;;;5015247;28;20049;-83
2022/04/08 07:37:36;;;;;;;4.93;1.15;;;4.90;99.90;;;;;;5031552;28;20037;-81
2022/04/08 07:40:12;;;;;;;4.68;1.23;;;5.00;99.90;;;;;;5031225;28;20030;-82
2022/04/08 07:42:39;;;;;;;4.63;0.93;;;5.20;99.90;;;;;;5015290;28;20041;-82
2022/04/08 07:45:06;;;;;;;8.15;1.60;;;5.30;99.90;;;;;;5031222;28;20044;-82
2022/04/08 07:47:32;;;;;;;6.18;1.88;;;5.30;99.90;;;;;;5031234;28;20491;-83
2022/04/08 07:49:58;;;;;;;4.30;1.50;;;5.50;99.90;;;;;;5014546;28;20068;-83
2022/04/08 07:52:25;;;;;;;4.75;1.20;;;5.70;99.90;;;;;;5031141;28;20407;-83
2022/04/08 07:54:51;;;;;;;8.32;1.48;;;5.90;99.90;;;;;;5031369;28;20075;-82
2022/04/08 07:57:17;;;;;;;6.47;1.60;;;6.00;99.90;;;;;;5030841;28;20590;-82
2022/04/08 07:59:43;;;;;;;5.80;1.60;;;6.20;99.90;;;;;;5030990;28;20137;-82
2022/04/08 08:02:09;;;;;;;7.68;1.30;;;6.10;99.90;;;;;;5031014;28;20041;-83
2022/04/08 08:04:34;;;;;;;6.43;1.42;;;6.00;99.90;;;;;;5029264;28;20570;-82
2022/04/08 08:07:00;;;;;;;7.03;1.40;;;5.90;99.90;;;;;;5014962;28;20030;-82
2022/04/08 08:09:25;;;;;;;5.60;1.70;;;5.90;99.90;;;;;;5031077;28;20041;-82
2022/04/08 08:11:51;;;;;;;5.88;1.50;;;5.90;99.90;;;;;;5031026;28;20506;-82
2022/04/08 08:14:17;;;;;;;8.32;1.70;;;5.90;99.90;;;;;;5030807;28;20052;-82
2022/04/08 08:16:42;;;;;;;7.47;1.63;;;6.00;99.90;;;;;;5030976;28;20044;-83
2022/04/08 08:19:08;;;;;;;6.53;1.92;;;5.90;99.90;;;;;;5031073;28;20096;-83
2022/04/08 08:21:33;;;;;;;8.65;1.85;;;5.80;99.90;;;;;;5030538;28;20522;-82
2022/04/08 08:23:59;;;;;;;9.57;2.00;;;5.70;99.90;;;;;;5028662;28;20041;-82
2022/04/08 08:26:25;;;;;;;8.77;2.08;;;5.60;99.90;;;;;;5014250;28;20085;-82
2022/04/08 08:28:50;;;;;;;8.80;2.33;;;5.50;99.90;;;;;;5030971;28;20128;-82
2022/04/08 08:31:16;;;;;;;8.27;2.22;;;5.40;99.90;;;;;;5030311;28;20041;-83
2022/04/08 08:33:43;;;;;;;4.57;1.67;;;5.30;99.90;;;;;;5030584;28;20051;-82
2022/04/08 08:36:09;;;;;;;5.38;1.55;;;5.30;99.90;;;;;;5030576;28;20044;-82
2022/04/08 08:38:35;;;;;;;8.02;2.00;;;5.40;99.90;;;;;;5030090;28;20033;-83
2022/04/08 08:41:01;;;;;;;8.57;2.10;;;5.50;99.90;;;;;;5013730;28;20124;-82
2022/04/08 08:43:27;;;;;;;6.72;2.35;;;5.70;99.90;;;;;;5013553;28;20047;-83
2022/04/08 08:45:56;;;;;;;8.75;2.60;;;5.90;99.90;;;;;;5030847;28;20380;-83
2022/04/08 08:48:23;;;;;;;7.80;2.38;;;5.90;99.90;;;;;;5030716;28;20038;-82
2022/04/08 08:50:52;;;;;;;7.95;2.42;;;6.00;99.90;;;;;;5013523;28;20144;-83
2022/04/08 08:53:19;;;;;;;9.70;2.88;;;6.10;99.90;;;;;;5030216;28;20072;-83
2022/04/08 08:55:50;;;;;;;9.32;2.75;;;6.20;99.90;;;;;;5030034;28;20071;-83
2022/04/08 08:58:17;;;;;;;8.20;1.98;;;6.30;99.90;;;;;;5014046;28;20030;-83
2022/04/08 09:00:42;;;;;;;10.63;2.25;;;6.30;99.90;;;;;;5030011;28;20037;-83
2022/04/08 09:03:09;;;;;;;7.40;2.25;;;6.40;99.90;;;;;;5029700;28;20082;-83
2022/04/08 09:05:43;;;;;;;8.32;2.60;;;6.40;99.90;;;;;;5030587;28;20033;-83
2022/04/08 09:08:10;;;;;;;8.98;2.35;;;6.40;99.90;;;;;;5029992;28;20040;-83
2022/04/08 09:10:50;;;;;;;7.68;2.08;;;6.40;99.90;;;;;;5013604;28;20395;-83
2022/04/08 09:13:20;;;;;;;6.85;1.92;;;6.50;99.90;;;;;;5030229;28;20452;-83
2022/04/08 09:15:56;;;;;;;5.35;1.77;;;6.50;99.90;;;;;;5031536;28;20026;-83
2022/04/08 09:18:23;;;;;;;4.53;1.35;;;6.60;99.90;;;;;;5030127;28;20038;-83
2022/04/08 09:20:50;;;;;;;7.18;1.77;;;6.50;99.90;;;;;;5013630;28;20069;-83
2022/04/08 09:23:20;;;;;;;5.75;1.77;;;6.50;99.90;;;;;;5029945;28;20042;-82
2022/04/08 09:25:48;;;;;;;5.70;1.67;;;6.50;99.90;;;;;;5029755;28;20562;-83
2022/04/08 09:28:18;;;;;;;7.35;1.95;;;6.50;99.90;;;;;;5029649;28;20525;-84
2022/04/08 09:30:55;;;;;;;8.43;1.60;;;6.60;99.90;;;;;;5012915;28;20069;-84
2022/04/08 09:33:23;;;;;;;5.35;1.27;;;6.80;99.90;;;;;;5030150;28;20322;-83
2022/04/08 09:35:52;;;;;;;5.43;1.25;;;6.90;99.90;;;;;;5029867;28;20048;-83
2022/04/08 09:38:19;;;;;;;6.15;1.40;;;7.00;99.90;;;;;;5030262;28;20430;-84
2022/04/08 09:40:45;;;;;;;9.50;2.10;;;7.20;99.90;;;;;;5013279;28;20065;-84
2022/04/08 09:43:12;;;;;;;10.32;1.98;;;7.30;99.90;;;;;;5029451;28;20091;-83
2022/04/08 09:45:38;;;;;;;9.93;2.25;;;7.50;99.90;;;;;;5029863;28;20052;-83
2022/04/08 09:48:05;;;;;;;10.30;2.30;;;7.70;99.90;;;;;;5013260;28;20116;-83
2022/04/08 09:50:31;;;;;;;8.45;2.38;;;7.90;99.90;;;;;;5030838;28;20054;-83
2022/04/08 09:52:57;;;;;;;8.25;2.20;;;7.90;99.90;;;;;;5016882;28;20037;-83
2022/04/08 09:55:25;;;;;;;8.30;2.15;;;8.00;99.90;;;;;;5017137;28;20037;-83
2022/04/08 09:57:59;;;;;;;11.90;2.70;;;7.90;99.90;;;;;;5017058;28;20041;-83
2022/04/08 10:00:27;;;;;;;10.27;2.63;;;7.80;99.90;;;;;;5032875;28;20092;-83
2022/04/08 10:02:54;;;;;;;9.95;2.85;;;7.90;99.90;;;;;;5033159;28;20030;-83
2022/04/08 10:05:22;;;;;;;10.02;2.67;;;7.90;99.90;;;;;;5016700;28;20033;-83
2022/04/08 10:07:52;;;;;;;12.07;3.50;;;8.10;99.90;;;;;;5033529;28;20041;-83
2022/04/08 10:10:40;;;;;;;10.43;2.38;;;8.30;99.90;;;;;;5032985;28;20081;-83
2022/04/08 10:13:43;;;;;;;8.57;2.13;;;8.50;99.90;;;;;;5033156;28;20507;-83
2022/04/08 10:16:21;;;;;;;;;;;8.60;99.90;;;;;;5017189;28;20445;-83
2022/04/08 10:18:48;;;;;;;14.57;2.65;;;8.70;99.90;;;;;;5016913;28;20528;-83
2022/04/08 10:21:15;;;;;;;11.00;2.55;;;8.70;99.90;;;;;;5032533;28;20034;-83
2022/04/08 10:23:52;;;;;;;9.77;2.17;;;8.70;99.90;;;;;;5016530;28;20033;-83
2022/04/08 10:26:20;;;;;;;8.63;1.88;;;8.70;99.90;;;;;;5032500;28;20502;-83
2022/04/08 10:28:46;;;;;;;9.95;2.00;;;8.70;99.90;;;;;;5016249;28;20045;-82
2022/04/08 10:31:20;;;;;;;11.00;2.85;;;8.60;99.90;;;;;;5017018;28;20128;-82
2022/04/08 10:33:48;;;;;;;12.18;2.38;;;8.60;99.90;;;;;;5033614;28;20052;-83
2022/04/08 10:36:14;;;;;;;8.63;2.20;;;8.60;99.90;;;;;;5033762;28;20120;-83
2022/04/08 10:38:40;;;;;;;11.32;2.13;;;8.70;99.90;;;;;;5033432;28;20038;-84
2022/04/08 10:41:09;;;;;;;12.57;2.33;;;8.70;99.90;;;;;;5032755;28;20048;-83
2022/04/08 10:43:46;;;;;;;8.98;1.90;;;8.80;99.90;;;;;;5033071;28;20091;-83
2022/04/08 10:46:12;;;;;;;9.23;1.98;;;8.90;99.90;;;;;;5032053;28;20056;-83
2022/04/08 10:48:38;;;;;;;10.27;2.17;;;9.00;99.90;;;;;;5031922;28;20047;-81
2022/04/08 10:51:06;;;;;;;9.32;1.95;;;9.10;99.90;;;;;;5032030;28;20045;-83
2022/04/08 10:53:39;;;;;;;7.97;1.73;;;9.10;99.60;;;;;;5015864;28;20057;-83
2022/04/08 10:56:13;;;;;;;10.65;2.20;;;9.20;99.90;;;;;;5032197;28;20083;-83
2022/04/08 10:58:49;;;;;;;6.50;1.50;;;9.30;99.90;;;;;;5015753;28;20083;-83
2022/04/08 11:01:17;;;;;;;6.25;1.38;;;9.40;98.50;;;;;;5032156;28;20518;-83
2022/04/08 11:03:46;;;;;;;9.65;1.63;;;9.50;98.60;;;;;;5031289;28;20087;-83
2022/04/08 11:06:19;;;;;;;8.43;1.92;;;9.60;99.70;;;;;;5032285;28;20049;-83
2022/04/08 11:08:44;;;;;;;6.35;1.60;;;9.60;97.90;;;;;;5015531;28;20449;-83
2022/04/08 11:11:11;;;;;;;11.45;2.10;;;9.40;96.60;;;;;;5015063;28;20120;-83
2022/04/08 11:13:40;;;;;;;10.15;1.95;;;9.30;96.30;;;;;;5032075;28;20061;-83
2022/04/08 11:16:06;;;;;;;9.75;1.67;;;9.10;94.70;;;;;;5015138;28;20069;-83
2022/04/08 11:18:31;;;;;;;10.30;2.13;;;8.90;95.60;;;;;;5032151;28;20084;-83
2022/04/08 11:20:57;;;;;;;10.95;1.65;;;8.80;97.10;;;;;;5031629;28;20419;-83
2022/04/08 11:23:32;;;;;;;9.63;2.40;;;8.80;99.60;;;;;;5015543;28;20098;-83
2022/04/08 11:25:58;;;;;;;9.05;2.00;;;8.90;99.90;;;;;;5031825;28;20124;-83
2022/04/08 11:28:24;;;;;;;7.90;2.20;;;8.90;99.90;;;;;;5015273;28;20064;-83
2022/04/08 11:30:57;;;;;;;10.30;1.88;;;8.90;99.90;;;;;;5015037;28;20076;-83
2022/04/08 11:33:24;;;;;;;7.38;1.63;;;9.00;99.90;;;;;;5015007;28;20044;-83
2022/04/08 11:36:03;;;;;;;10.95;1.80;;;9.10;99.90;;;;;;5031732;28;20586;-83
2022/04/08 11:38:30;;;;;;;9.38;1.70;;;9.20;99.90;;;;;;5015049;28;20594;-83
2022/04/08 11:40:56;;;;;;;9.50;2.90;;;9.20;99.90;;;;;;5014872;28;20045;-83
2022/04/08 11:43:21;;;;;;;9.30;2.28;;;9.30;99.90;;;;;;5014790;28;20037;-83
2022/04/08 11:45:50;;;;;;;9.07;2.30;;;9.40;99.90;;;;;;5031173;28;20041;-83
2022/04/08 11:48:19;;;;;;;10.15;2.25;;;9.60;99.90;;;;;;5031672;28;20402;-83
2022/04/08 11:50:45;;;;;;;9.13;2.45;;;9.80;99.90;;;;;;5014211;28;20069;-83
2022/04/08 11:53:46;;;;;;;11.15;2.15;;;10.00;99.90;;;;;;5014557;28;20041;-83
2022/04/08 11:56:26;;;;;;;10.05;2.58;;;10.20;99.90;;;;;;5014389;28;20499;-83
2022/04/08 11:59:05;;;;;;;9.25;2.15;;;10.40;99.90;;;;;;5031260;28;20084;-83
2022/04/08 12:01:38;;;;;;;12.00;3.63;;;10.30;99.90;;;;;;5030793;28;20042;-83
2022/04/08 12:04:05;;;;;;;;;;;10.20;99.90;;;;;;5031225;28;20521;-83
2022/04/08 12:06:42;;;;;;;8.95;2.22;;;10.00;99.90;;;;;;5031246;28;19924;-83
2022/04/08 12:09:09;;;;;;;9.38;2.35;;;9.90;99.90;;;;;;5030769;28;20045;-83
2022/04/08 12:11:36;;;;;;;10.55;2.60;;;9.80;99.90;;;;;;5030592;28;20042;-83
2022/04/08 12:14:05;;;;;;;10.45;2.45;;;9.60;99.90;;;;;;5030698;28;20053;-83
2022/04/08 12:16:33;;;;;;;9.35;2.13;;;9.60;99.90;;;;;;5030573;28;20414;-83
2022/04/08 12:19:00;;;;;;;10.73;2.17;;;9.50;99.90;;;;;;5014312;28;20033;-83
2022/04/08 12:21:27;;;;;;;9.40;2.58;;;9.50;99.90;;;;;;5014117;28;20581;-82
2022/04/08 12:23:55;;;;;;;8.75;2.38;;;9.40;99.90;;;;;;5030554;28;20073;-83
2022/04/08 12:26:26;;;;;;;7.25;1.80;;;9.30;99.90;;;;;;5014078;28;20124;-82
2022/04/08 12:29:09;;;;;;;8.10;1.83;;;9.00;99.90;;;;;;5030718;28;20042;-82
2022/04/08 12:31:55;;;;;;;6.93;1.90;;;8.60;99.90;;;;;;5030598;28;20041;-82
2022/04/08 12:34:21;;;;;;;5.45;1.35;;;8.10;99.90;;;;;;5030488;28;20037;-82
2022/04/08 12:36:48;;;;;;;9.43;1.80;;;7.90;99.90;;;;;;5030255;28;20506;-82
2022/04/08 12:39:15;;;;;;;8.60;1.67;;;7.80;99.90;;;;;;5014079;28;20128;-82
2022/04/08 12:41:50;;;;;;;6.68;1.52;;;7.80;99.90;;;;;;5030762;28;20038;-83
2022/04/08 12:44:16;;;;;;;9.07;1.58;;;7.90;99.90;;;;;;5030329;28;20041;-82
2022/04/08 12:46:42;;;;;;;7.28;1.48;;;8.00;99.90;;;;;;5030443;28;20041;-82
2022/04/08 12:49:07;;;;;;;5.75;1.40;;;8.30;99.90;;;;;;5030048;28;20042;-83
2022/04/08 12:51:34;;;;;;;8.07;1.38;;;8.70;99.90;;;;;;5030297;28;20379;-83
2022/04/08 12:54:00;;;;;;;9.23;1.50;;;9.10;99.90;;;;;;5014005;28;20046;-83
2022/04/08 12:56:26;;;;;;;7.88;1.95;;;9.40;99.90;;;;;;5029957;28;20037;-83